sensor_id;sensor_type;location;lat;lon;timestamp;P1;durP1;ratioP1;P2;durP2;ratioP2
39140;SDS011;24875;48.436;10.298;2022-09-24T00:01:47;7.73;;;4.60;;
39140;SDS011;24875;48.436;10.298;2022-09-24T00:04:15;8.13;;;5.13;;
39140;SDS011;24875;48.436;10.298;2022-09-24T00:06:42;8.03;;;4.70;;
39140;SDS011;24875;48.436;10.298;2022-09-24T00:09:11;10.77;;;4.77;;
39140;SDS011;24875;48.436;10.298;2022-09-24T00:11:39;9.67;;;4.87;;
39140;SDS011;24875;48.436;10.298;2022-09-24T00:14:07;13.10;;;4.90;;
39140;SDS011;24875;48.436;10.298;2022-09-24T00:16:34;11.00;;;4.80;;
39140;SDS011;24875;48.436;10.298;2022-09-24T00:19:01;11.73;;;5.33;;
39140;SDS011;24875;48.436;10.298;2022-09-24T00:21:29;11.43;;;5.27;;
39140;SDS011;24875;48.436;10.298;2022-09-24T00:23:59;13.23;;;5.50;;
39140;SDS011;24875;48.436;10.298;2022-09-24T00:26:28;10.10;;;4.97;;
39140;SDS011;24875;48.436;10.298;2022-09-24T00:29:13;7.53;;;4.90;;
39140;SDS011;24875;48.436;10.298;2022-09-24T00:31:41;12.27;;;5.40;;
39140;SDS011;24875;48.436;10.298;2022-09-24T00:34:08;9.03;;;5.50;;
39140;SDS011;24875;48.436;10.298;2022-09-24T00:36:34;6.03;;;4.33;;
39140;SDS011;24875;48.436;10.298;2022-09-24T00:39:01;6.43;;;4.50;;
39140;SDS011;24875;48.436;10.298;2022-09-24T00:41:31;8.90;;;4.67;;
39140;SDS011;24875;48.436;10.298;2022-09-24T00:43:59;11.57;;;5.07;;
39140;SDS011;24875;48.436;10.298;2022-09-24T00:46:26;7.37;;;4.50;;
39140;SDS011;24875;48.436;10.298;2022-09-24T00:48:56;10.23;;;4.90;;
39140;SDS011;24875;48.436;10.298;2022-09-24T00:51:26;7.73;;;4.73;;
39140;SDS011;24875;48.436;10.298;2022-09-24T00:53:55;11.17;;;4.50;;
39140;SDS011;24875;48.436;10.298;2022-09-24T00:56:26;11.77;;;4.97;;
39140;SDS011;24875;48.436;10.298;2022-09-24T00:58:57;12.50;;;5.13;;
39140;SDS011;24875;48.436;10.298;2022-09-24T01:01:27;11.70;;;5.37;;
39140;SDS011;24875;48.436;10.298;2022-09-24T01:03:55;10.70;;;5.67;;
39140;SDS011;24875;48.436;10.298;2022-09-24T01:06:23;8.63;;;5.13;;
39140;SDS011;24875;48.436;10.298;2022-09-24T01:08:50;8.13;;;4.53;;
39140;SDS011;24875;48.436;10.298;2022-09-24T01:11:21;6.83;;;4.20;;
39140;SDS011;24875;48.436;10.298;2022-09-24T01:17:09;13.37;;;5.20;;
39140;SDS011;24875;48.436;10.298;2022-09-24T01:19:56;8.67;;;4.97;;
39140;SDS011;24875;48.436;10.298;2022-09-24T01:22:42;7.00;;;4.60;;
39140;SDS011;24875;48.436;10.298;2022-09-24T01:25:25;9.00;;;5.13;;
39140;SDS011;24875;48.436;10.298;2022-09-24T01:28:05;10.60;;;4.90;;
39140;SDS011;24875;48.436;10.298;2022-09-24T01:30:51;12.63;;;5.30;;
39140;SDS011;24875;48.436;10.298;2022-09-24T01:33:23;10.27;;;5.27;;
39140;SDS011;24875;48.436;10.298;2022-09-24T01:35:54;8.30;;;4.60;;
39140;SDS011;24875;48.436;10.298;2022-09-24T01:38:26;9.00;;;5.50;;
39140;SDS011;24875;48.436;10.298;2022-09-24T01:40:55;13.07;;;6.47;;
39140;SDS011;24875;48.436;10.298;2022-09-24T01:43:26;10.47;;;6.17;;
39140;SDS011;24875;48.436;10.298;2022-09-24T01:45:56;8.13;;;5.17;;
39140;SDS011;24875;48.436;10.298;2022-09-24T01:48:27;14.00;;;6.47;;
39140;SDS011;24875;48.436;10.298;2022-09-24T01:50:56;10.87;;;6.07;;
39140;SDS011;24875;48.436;10.298;2022-09-24T01:53:27;10.40;;;6.23;;
39140;SDS011;24875;48.436;10.298;2022-09-24T01:55:57;13.47;;;6.67;;
39140;SDS011;24875;48.436;10.298;2022-09-24T01:58:28;12.50;;;7.13;;
39140;SDS011;24875;48.436;10.298;2022-09-24T02:01:04;12.13;;;6.30;;
39140;SDS011;24875;48.436;10.298;2022-09-24T02:03:35;8.00;;;5.17;;
39140;SDS011;24875;48.436;10.298;2022-09-24T02:06:08;9.27;;;6.00;;
39140;SDS011;24875;48.436;10.298;2022-09-24T02:08:40;13.53;;;6.83;;
39140;SDS011;24875;48.436;10.298;2022-09-24T02:11:11;14.90;;;6.00;;
39140;SDS011;24875;48.436;10.298;2022-09-24T02:13:41;13.93;;;7.17;;
39140;SDS011;24875;48.436;10.298;2022-09-24T02:16:12;14.70;;;7.93;;
39140;SDS011;24875;48.436;10.298;2022-09-24T02:18:41;14.27;;;7.63;;
39140;SDS011;24875;48.436;10.298;2022-09-24T02:21:13;17.13;;;6.90;;
39140;SDS011;24875;48.436;10.298;2022-09-24T02:23:42;14.90;;;7.83;;
39140;SDS011;24875;48.436;10.298;2022-09-24T02:26:12;17.27;;;8.67;;
39140;SDS011;24875;48.436;10.298;2022-09-24T02:28:39;13.37;;;7.43;;
39140;SDS011;24875;48.436;10.298;2022-09-24T02:31:07;15.23;;;8.37;;
39140;SDS011;24875;48.436;10.298;2022-09-24T02:33:41;20.70;;;8.23;;
39140;SDS011;24875;48.436;10.298;2022-09-24T02:36:27;15.73;;;8.63;;
39140;SDS011;24875;48.436;10.298;2022-09-24T02:38:54;14.13;;;7.00;;
39140;SDS011;24875;48.436;10.298;2022-09-24T02:41:21;11.10;;;6.90;;
39140;SDS011;24875;48.436;10.298;2022-09-24T02:43:49;20.53;;;8.37;;
39140;SDS011;24875;48.436;10.298;2022-09-24T02:46:16;14.03;;;7.10;;
39140;SDS011;24875;48.436;10.298;2022-09-24T02:48:44;19.57;;;7.73;;
39140;SDS011;24875;48.436;10.298;2022-09-24T02:51:10;14.00;;;7.30;;
39140;SDS011;24875;48.436;10.298;2022-09-24T02:53:37;12.53;;;7.33;;
39140;SDS011;24875;48.436;10.298;2022-09-24T02:56:04;12.57;;;7.30;;
39140;SDS011;24875;48.436;10.298;2022-09-24T02:58:32;13.50;;;7.20;;
39140;SDS011;24875;48.436;10.298;2022-09-24T03:01:01;17.63;;;7.43;;
39140;SDS011;24875;48.436;10.298;2022-09-24T03:03:28;12.73;;;7.60;;
39140;SDS011;24875;48.436;10.298;2022-09-24T03:05:56;13.77;;;7.40;;
39140;SDS011;24875;48.436;10.298;2022-09-24T03:08:23;13.87;;;8.00;;
39140;SDS011;24875;48.436;10.298;2022-09-24T03:10:50;15.63;;;7.90;;
39140;SDS011;24875;48.436;10.298;2022-09-24T03:13:16;14.97;;;7.40;;
39140;SDS011;24875;48.436;10.298;2022-09-24T03:15:43;17.37;;;8.70;;
39140;SDS011;24875;48.436;10.298;2022-09-24T03:18:10;16.60;;;7.63;;
39140;SDS011;24875;48.436;10.298;2022-09-24T03:20:36;17.80;;;9.20;;
39140;SDS011;24875;48.436;10.298;2022-09-24T03:23:04;16.50;;;8.70;;
39140;SDS011;24875;48.436;10.298;2022-09-24T03:25:31;17.43;;;9.23;;
39140;SDS011;24875;48.436;10.298;2022-09-24T03:27:57;15.30;;;7.83;;
39140;SDS011;24875;48.436;10.298;2022-09-24T03:30:24;15.77;;;9.03;;
39140;SDS011;24875;48.436;10.298;2022-09-24T03:33:08;16.87;;;8.93;;
39140;SDS011;24875;48.436;10.298;2022-09-24T03:35:34;15.23;;;8.97;;
39140;SDS011;24875;48.436;10.298;2022-09-24T03:38:01;20.00;;;8.80;;
39140;SDS011;24875;48.436;10.298;2022-09-24T03:40:28;14.47;;;9.17;;
39140;SDS011;24875;48.436;10.298;2022-09-24T03:42:55;17.83;;;10.30;;
39140;SDS011;24875;48.436;10.298;2022-09-24T03:45:21;15.97;;;9.27;;
39140;SDS011;24875;48.436;10.298;2022-09-24T03:47:48;18.87;;;10.30;;
39140;SDS011;24875;48.436;10.298;2022-09-24T03:50:14;21.77;;;10.10;;
39140;SDS011;24875;48.436;10.298;2022-09-24T03:52:41;20.80;;;10.70;;
39140;SDS011;24875;48.436;10.298;2022-09-24T03:55:08;19.53;;;11.13;;
39140;SDS011;24875;48.436;10.298;2022-09-24T03:57:36;23.20;;;10.80;;
39140;SDS011;24875;48.436;10.298;2022-09-24T04:00:02;16.03;;;9.53;;
39140;SDS011;24875;48.436;10.298;2022-09-24T04:02:29;17.73;;;9.87;;
39140;SDS011;24875;48.436;10.298;2022-09-24T04:04:55;21.27;;;10.40;;
39140;SDS011;24875;48.436;10.298;2022-09-24T04:07:22;22.33;;;10.93;;
39140;SDS011;24875;48.436;10.298;2022-09-24T04:09:49;19.93;;;10.30;;
39140;SDS011;24875;48.436;10.298;2022-09-24T04:12:15;18.50;;;9.93;;
39140;SDS011;24875;48.436;10.298;2022-09-24T04:14:43;21.67;;;11.23;;
39140;SDS011;24875;48.436;10.298;2022-09-24T04:17:10;26.20;;;11.07;;
39140;SDS011;24875;48.436;10.298;2022-09-24T04:19:36;22.10;;;11.47;;
39140;SDS011;24875;48.436;10.298;2022-09-24T04:22:03;19.23;;;10.80;;
39140;SDS011;24875;48.436;10.298;2022-09-24T04:24:30;23.07;;;10.93;;
39140;SDS011;24875;48.436;10.298;2022-09-24T04:26:56;16.70;;;8.67;;
39140;SDS011;24875;48.436;10.298;2022-09-24T04:29:23;16.33;;;8.77;;
39140;SDS011;24875;48.436;10.298;2022-09-24T04:31:51;22.80;;;10.10;;
39140;SDS011;24875;48.436;10.298;2022-09-24T04:34:17;19.23;;;10.10;;
39140;SDS011;24875;48.436;10.298;2022-09-24T04:36:44;17.03;;;9.70;;
39140;SDS011;24875;48.436;10.298;2022-09-24T04:39:11;18.30;;;9.97;;
39140;SDS011;24875;48.436;10.298;2022-09-24T04:41:37;17.57;;;9.33;;
39140;SDS011;24875;48.436;10.298;2022-09-24T04:44:05;16.70;;;9.17;;
39140;SDS011;24875;48.436;10.298;2022-09-24T04:46:31;18.43;;;9.10;;
39140;SDS011;24875;48.436;10.298;2022-09-24T04:48:59;17.70;;;9.20;;
39140;SDS011;24875;48.436;10.298;2022-09-24T04:51:26;17.33;;;9.37;;
39140;SDS011;24875;48.436;10.298;2022-09-24T04:53:52;17.50;;;9.10;;
39140;SDS011;24875;48.436;10.298;2022-09-24T04:56:18;18.13;;;9.40;;
39140;SDS011;24875;48.436;10.298;2022-09-24T04:58:48;20.37;;;10.60;;
39140;SDS011;24875;48.436;10.298;2022-09-24T05:01:15;18.07;;;10.07;;
39140;SDS011;24875;48.436;10.298;2022-09-24T05:03:43;17.57;;;10.10;;
39140;SDS011;24875;48.436;10.298;2022-09-24T05:06:11;16.53;;;9.83;;
39140;SDS011;24875;48.436;10.298;2022-09-24T05:08:38;17.37;;;9.60;;
39140;SDS011;24875;48.436;10.298;2022-09-24T05:11:04;17.80;;;9.90;;
39140;SDS011;24875;48.436;10.298;2022-09-24T05:13:31;21.57;;;10.23;;
39140;SDS011;24875;48.436;10.298;2022-09-24T05:15:59;20.30;;;10.30;;
39140;SDS011;24875;48.436;10.298;2022-09-24T05:18:25;18.27;;;9.70;;
39140;SDS011;24875;48.436;10.298;2022-09-24T05:20:52;17.83;;;9.83;;
39140;SDS011;24875;48.436;10.298;2022-09-24T05:23:20;17.63;;;9.93;;
39140;SDS011;24875;48.436;10.298;2022-09-24T05:25:46;15.77;;;9.40;;
39140;SDS011;24875;48.436;10.298;2022-09-24T05:28:30;17.50;;;9.70;;
39140;SDS011;24875;48.436;10.298;2022-09-24T05:30:57;18.73;;;9.70;;
39140;SDS011;24875;48.436;10.298;2022-09-24T05:33:24;16.50;;;9.63;;
39140;SDS011;24875;48.436;10.298;2022-09-24T05:35:52;17.40;;;10.27;;
39140;SDS011;24875;48.436;10.298;2022-09-24T05:38:18;17.97;;;10.40;;
39140;SDS011;24875;48.436;10.298;2022-09-24T05:40:46;19.90;;;10.50;;
39140;SDS011;24875;48.436;10.298;2022-09-24T05:43:13;20.63;;;10.10;;
39140;SDS011;24875;48.436;10.298;2022-09-24T05:45:41;18.07;;;10.27;;
39140;SDS011;24875;48.436;10.298;2022-09-24T05:48:09;18.27;;;10.20;;
39140;SDS011;24875;48.436;10.298;2022-09-24T05:50:36;20.80;;;10.00;;
39140;SDS011;24875;48.436;10.298;2022-09-24T05:53:03;16.80;;;9.67;;
39140;SDS011;24875;48.436;10.298;2022-09-24T05:55:31;17.63;;;10.17;;
39140;SDS011;24875;48.436;10.298;2022-09-24T05:58:02;19.90;;;10.77;;
39140;SDS011;24875;48.436;10.298;2022-09-24T06:00:30;19.57;;;10.77;;
39140;SDS011;24875;48.436;10.298;2022-09-24T06:03:00;21.03;;;11.47;;
39140;SDS011;24875;48.436;10.298;2022-09-24T06:05:28;24.20;;;11.50;;
39140;SDS011;24875;48.436;10.298;2022-09-24T06:07:54;18.17;;;9.93;;
39140;SDS011;24875;48.436;10.298;2022-09-24T06:10:21;21.23;;;10.47;;
39140;SDS011;24875;48.436;10.298;2022-09-24T06:12:52;17.37;;;9.97;;
39140;SDS011;24875;48.436;10.298;2022-09-24T06:15:18;20.23;;;10.70;;
39140;SDS011;24875;48.436;10.298;2022-09-24T06:17:45;18.93;;;10.07;;
39140;SDS011;24875;48.436;10.298;2022-09-24T06:20:12;21.50;;;11.02;;
39140;SDS011;24875;48.436;10.298;2022-09-24T06:22:39;19.37;;;10.43;;
39140;SDS011;24875;48.436;10.298;2022-09-24T06:25:06;23.13;;;11.30;;
39140;SDS011;24875;48.436;10.298;2022-09-24T06:27:33;23.00;;;11.33;;
39140;SDS011;24875;48.436;10.298;2022-09-24T06:30:02;18.50;;;10.43;;
39140;SDS011;24875;48.436;10.298;2022-09-24T06:32:29;26.50;;;10.80;;
39140;SDS011;24875;48.436;10.298;2022-09-24T06:34:56;24.80;;;11.30;;
39140;SDS011;24875;48.436;10.298;2022-09-24T06:37:22;18.13;;;10.17;;
39140;SDS011;24875;48.436;10.298;2022-09-24T06:39:49;19.47;;;10.43;;
39140;SDS011;24875;48.436;10.298;2022-09-24T06:42:15;21.10;;;11.43;;
39140;SDS011;24875;48.436;10.298;2022-09-24T06:44:42;22.13;;;10.77;;
39140;SDS011;24875;48.436;10.298;2022-09-24T06:47:09;22.95;;;11.05;;
39140;SDS011;24875;48.436;10.298;2022-09-24T06:49:36;22.40;;;12.07;;
39140;SDS011;24875;48.436;10.298;2022-09-24T06:52:03;26.83;;;11.93;;
39140;SDS011;24875;48.436;10.298;2022-09-24T06:54:29;25.83;;;12.70;;
39140;SDS011;24875;48.436;10.298;2022-09-24T06:56:56;21.95;;;11.48;;
39140;SDS011;24875;48.436;10.298;2022-09-24T06:59:22;26.43;;;12.57;;
39140;SDS011;24875;48.436;10.298;2022-09-24T07:01:49;24.27;;;12.67;;
39140;SDS011;24875;48.436;10.298;2022-09-24T07:04:17;27.40;;;13.90;;
39140;SDS011;24875;48.436;10.298;2022-09-24T07:06:43;26.70;;;12.85;;
39140;SDS011;24875;48.436;10.298;2022-09-24T07:09:29;26.83;;;13.33;;
39140;SDS011;24875;48.436;10.298;2022-09-24T07:11:56;28.92;;;14.20;;
39140;SDS011;24875;48.436;10.298;2022-09-24T07:14:25;23.33;;;12.30;;
39140;SDS011;24875;48.436;10.298;2022-09-24T07:16:51;21.67;;;12.63;;
39140;SDS011;24875;48.436;10.298;2022-09-24T07:19:19;27.63;;;14.90;;
39140;SDS011;24875;48.436;10.298;2022-09-24T07:21:46;29.08;;;13.05;;
39140;SDS011;24875;48.436;10.298;2022-09-24T07:24:12;30.67;;;15.82;;
39140;SDS011;24875;48.436;10.298;2022-09-24T07:26:39;30.45;;;15.50;;
39140;SDS011;24875;48.436;10.298;2022-09-24T07:29:06;33.70;;;15.02;;
39140;SDS011;24875;48.436;10.298;2022-09-24T07:31:32;27.02;;;14.15;;
39140;SDS011;24875;48.436;10.298;2022-09-24T07:34:00;33.00;;;12.88;;
39140;SDS011;24875;48.436;10.298;2022-09-24T07:36:28;26.38;;;14.15;;
39140;SDS011;24875;48.436;10.298;2022-09-24T07:38:55;26.15;;;13.57;;
39140;SDS011;24875;48.436;10.298;2022-09-24T07:41:21;34.30;;;15.10;;
39140;SDS011;24875;48.436;10.298;2022-09-24T07:43:47;33.70;;;14.98;;
39140;SDS011;24875;48.436;10.298;2022-09-24T07:46:14;32.42;;;15.18;;
39140;SDS011;24875;48.436;10.298;2022-09-24T07:48:40;28.15;;;15.07;;
39140;SDS011;24875;48.436;10.298;2022-09-24T07:51:08;27.92;;;14.68;;
39140;SDS011;24875;48.436;10.298;2022-09-24T07:53:36;30.73;;;13.45;;
39140;SDS011;24875;48.436;10.298;2022-09-24T07:56:03;28.80;;;14.10;;
39140;SDS011;24875;48.436;10.298;2022-09-24T07:58:30;27.40;;;14.07;;
39140;SDS011;24875;48.436;10.298;2022-09-24T08:00:56;28.07;;;13.47;;
39140;SDS011;24875;48.436;10.298;2022-09-24T08:03:24;32.75;;;14.35;;
39140;SDS011;24875;48.436;10.298;2022-09-24T08:05:50;26.55;;;14.30;;
39140;SDS011;24875;48.436;10.298;2022-09-24T08:08:21;24.93;;;13.87;;
39140;SDS011;24875;48.436;10.298;2022-09-24T08:10:49;31.15;;;14.60;;
39140;SDS011;24875;48.436;10.298;2022-09-24T08:13:15;25.98;;;14.25;;
39140;SDS011;24875;48.436;10.298;2022-09-24T08:15:42;28.90;;;14.23;;
39140;SDS011;24875;48.436;10.298;2022-09-24T08:18:08;26.40;;;13.88;;
39140;SDS011;24875;48.436;10.298;2022-09-24T08:20:35;26.40;;;15.50;;
39140;SDS011;24875;48.436;10.298;2022-09-24T08:23:04;34.08;;;15.85;;
39140;SDS011;24875;48.436;10.298;2022-09-24T08:25:32;28.73;;;14.93;;
39140;SDS011;24875;48.436;10.298;2022-09-24T08:28:01;27.10;;;14.57;;
39140;SDS011;24875;48.436;10.298;2022-09-24T08:30:28;29.23;;;14.07;;
39140;SDS011;24875;48.436;10.298;2022-09-24T08:32:55;30.25;;;14.20;;
39140;SDS011;24875;48.436;10.298;2022-09-24T08:35:22;31.73;;;13.95;;
39140;SDS011;24875;48.436;10.298;2022-09-24T08:37:49;32.20;;;15.88;;
39140;SDS011;24875;48.436;10.298;2022-09-24T08:40:19;39.60;;;15.45;;
39140;SDS011;24875;48.436;10.298;2022-09-24T08:42:49;33.67;;;14.80;;
39140;SDS011;24875;48.436;10.298;2022-09-24T08:45:21;31.85;;;15.57;;
39140;SDS011;24875;48.436;10.298;2022-09-24T08:48:08;34.58;;;15.88;;
39140;SDS011;24875;48.436;10.298;2022-09-24T08:50:39;28.77;;;14.38;;
39140;SDS011;24875;48.436;10.298;2022-09-24T08:53:14;31.15;;;14.52;;
39140;SDS011;24875;48.436;10.298;2022-09-24T08:55:45;37.05;;;16.92;;
39140;SDS011;24875;48.436;10.298;2022-09-24T08:58:23;32.67;;;15.32;;
39140;SDS011;24875;48.436;10.298;2022-09-24T09:00:56;32.97;;;16.77;;
39140;SDS011;24875;48.436;10.298;2022-09-24T09:03:29;36.17;;;17.27;;
39140;SDS011;24875;48.436;10.298;2022-09-24T09:06:02;33.78;;;17.27;;
39140;SDS011;24875;48.436;10.298;2022-09-24T09:08:36;37.72;;;18.77;;
39140;SDS011;24875;48.436;10.298;2022-09-24T09:11:13;43.50;;;17.73;;
39140;SDS011;24875;48.436;10.298;2022-09-24T09:13:45;27.45;;;15.50;;
39140;SDS011;24875;48.436;10.298;2022-09-24T09:16:22;31.42;;;14.75;;
39140;SDS011;24875;48.436;10.298;2022-09-24T09:18:52;33.53;;;16.15;;
39140;SDS011;24875;48.436;10.298;2022-09-24T09:21:25;29.48;;;15.38;;
39140;SDS011;24875;48.436;10.298;2022-09-24T09:23:56;32.92;;;16.58;;
39140;SDS011;24875;48.436;10.298;2022-09-24T09:26:26;40.17;;;17.88;;
39140;SDS011;24875;48.436;10.298;2022-09-24T09:28:54;31.48;;;16.33;;
39140;SDS011;24875;48.436;10.298;2022-09-24T09:31:29;36.78;;;16.10;;
39140;SDS011;24875;48.436;10.298;2022-09-24T09:34:24;30.45;;;15.82;;
39140;SDS011;24875;48.436;10.298;2022-09-24T09:37:02;28.25;;;15.48;;
39140;SDS011;24875;48.436;10.298;2022-09-24T09:39:41;25.58;;;13.23;;
39140;SDS011;24875;48.436;10.298;2022-09-24T09:42:25;31.55;;;14.05;;
39140;SDS011;24875;48.436;10.298;2022-09-24T09:44:56;32.38;;;14.23;;
39140;SDS011;24875;48.436;10.298;2022-09-24T09:47:30;30.80;;;14.98;;
39140;SDS011;24875;48.436;10.298;2022-09-24T09:50:07;27.25;;;14.63;;
39140;SDS011;24875;48.436;10.298;2022-09-24T09:52:43;28.52;;;13.23;;
39140;SDS011;24875;48.436;10.298;2022-09-24T09:55:18;37.17;;;15.63;;
39140;SDS011;24875;48.436;10.298;2022-09-24T09:57:47;29.52;;;16.10;;
39140;SDS011;24875;48.436;10.298;2022-09-24T10:00:25;30.55;;;15.60;;
39140;SDS011;24875;48.436;10.298;2022-09-24T10:02:59;29.13;;;15.68;;
39140;SDS011;24875;48.436;10.298;2022-09-24T10:05:27;33.03;;;14.10;;
39140;SDS011;24875;48.436;10.298;2022-09-24T10:07:55;29.38;;;13.40;;
39140;SDS011;24875;48.436;10.298;2022-09-24T10:10:23;29.25;;;14.00;;
39140;SDS011;24875;48.436;10.298;2022-09-24T10:12:51;24.67;;;12.45;;
39140;SDS011;24875;48.436;10.298;2022-09-24T10:15:21;25.77;;;13.63;;
39140;SDS011;24875;48.436;10.298;2022-09-24T10:17:50;26.17;;;13.88;;
39140;SDS011;24875;48.436;10.298;2022-09-24T10:20:22;40.85;;;18.60;;
39140;SDS011;24875;48.436;10.298;2022-09-24T10:22:52;29.00;;;14.73;;
39140;SDS011;24875;48.436;10.298;2022-09-24T10:25:22;24.98;;;13.35;;
39140;SDS011;24875;48.436;10.298;2022-09-24T10:27:51;30.80;;;14.50;;
39140;SDS011;24875;48.436;10.298;2022-09-24T10:30:46;22.65;;;12.38;;
39140;SDS011;24875;48.436;10.298;2022-09-24T10:33:15;22.90;;;11.93;;
39140;SDS011;24875;48.436;10.298;2022-09-24T10:35:44;24.20;;;12.85;;
39140;SDS011;24875;48.436;10.298;2022-09-24T10:38:15;22.02;;;12.35;;
39140;SDS011;24875;48.436;10.298;2022-09-24T10:40:44;24.58;;;13.43;;
39140;SDS011;24875;48.436;10.298;2022-09-24T10:43:14;26.25;;;13.77;;
39140;SDS011;24875;48.436;10.298;2022-09-24T10:45:55;22.85;;;12.65;;
39140;SDS011;24875;48.436;10.298;2022-09-24T10:48:32;25.95;;;12.57;;
39140;SDS011;24875;48.436;10.298;2022-09-24T10:51:11;24.90;;;13.38;;
39140;SDS011;24875;48.436;10.298;2022-09-24T10:53:50;24.77;;;14.70;;
39140;SDS011;24875;48.436;10.298;2022-09-24T10:56:25;32.97;;;17.25;;
39140;SDS011;24875;48.436;10.298;2022-09-24T10:59:06;23.00;;;11.90;;
39140;SDS011;24875;48.436;10.298;2022-09-24T11:02:04;19.67;;;12.05;;
39140;SDS011;24875;48.436;10.298;2022-09-24T11:04:53;21.05;;;10.63;;
39140;SDS011;24875;48.436;10.298;2022-09-24T11:07:32;20.42;;;10.27;;
39140;SDS011;24875;48.436;10.298;2022-09-24T11:10:17;20.02;;;10.40;;
39140;SDS011;24875;48.436;10.298;2022-09-24T11:12:52;24.73;;;11.02;;
39140;SDS011;24875;48.436;10.298;2022-09-24T11:15:32;18.08;;;10.05;;
39140;SDS011;24875;48.436;10.298;2022-09-24T11:18:22;21.02;;;10.38;;
39140;SDS011;24875;48.436;10.298;2022-09-24T11:20:59;21.30;;;11.30;;
39140;SDS011;24875;48.436;10.298;2022-09-24T11:23:45;21.00;;;8.95;;
39140;SDS011;24875;48.436;10.298;2022-09-24T11:26:24;17.05;;;9.15;;
39140;SDS011;24875;48.436;10.298;2022-09-24T11:29:02;11.38;;;7.07;;
39140;SDS011;24875;48.436;10.298;2022-09-24T11:31:39;15.38;;;8.27;;
39140;SDS011;24875;48.436;10.298;2022-09-24T11:34:13;13.60;;;7.38;;
39140;SDS011;24875;48.436;10.298;2022-09-24T11:36:57;13.95;;;6.97;;
39140;SDS011;24875;48.436;10.298;2022-09-24T11:39:37;14.82;;;8.38;;
39140;SDS011;24875;48.436;10.298;2022-09-24T11:42:19;15.85;;;8.00;;
39140;SDS011;24875;48.436;10.298;2022-09-24T11:44:55;12.45;;;7.35;;
39140;SDS011;24875;48.436;10.298;2022-09-24T11:47:37;16.27;;;7.88;;
39140;SDS011;24875;48.436;10.298;2022-09-24T11:50:26;13.02;;;7.50;;
39140;SDS011;24875;48.436;10.298;2022-09-24T11:53:05;14.45;;;7.43;;
39140;SDS011;24875;48.436;10.298;2022-09-24T11:55:40;10.93;;;6.22;;
39140;SDS011;24875;48.436;10.298;2022-09-24T11:58:14;13.30;;;7.13;;
39140;SDS011;24875;48.436;10.298;2022-09-24T12:00:45;11.52;;;6.93;;
39140;SDS011;24875;48.436;10.298;2022-09-24T12:03:17;14.35;;;6.55;;
39140;SDS011;24875;48.436;10.298;2022-09-24T12:05:47;11.10;;;6.07;;
39140;SDS011;24875;48.436;10.298;2022-09-24T12:08:18;11.35;;;7.07;;
39140;SDS011;24875;48.436;10.298;2022-09-24T12:10:53;17.33;;;7.07;;
39140;SDS011;24875;48.436;10.298;2022-09-24T12:13:26;11.73;;;5.88;;
39140;SDS011;24875;48.436;10.298;2022-09-24T12:15:56;12.40;;;7.25;;
39140;SDS011;24875;48.436;10.298;2022-09-24T12:18:27;12.00;;;5.70;;
39140;SDS011;24875;48.436;10.298;2022-09-24T12:21:00;9.70;;;5.80;;
39140;SDS011;24875;48.436;10.298;2022-09-24T12:23:33;11.20;;;6.13;;
39140;SDS011;24875;48.436;10.298;2022-09-24T12:26:06;10.23;;;5.15;;
39140;SDS011;24875;48.436;10.298;2022-09-24T12:28:35;11.25;;;5.72;;
39140;SDS011;24875;48.436;10.298;2022-09-24T12:31:26;11.30;;;5.63;;
39140;SDS011;24875;48.436;10.298;2022-09-24T12:34:18;9.88;;;5.57;;
39140;SDS011;24875;48.436;10.298;2022-09-24T12:36:52;8.63;;;5.10;;
39140;SDS011;24875;48.436;10.298;2022-09-24T12:39:24;9.32;;;4.90;;
39140;SDS011;24875;48.436;10.298;2022-09-24T12:41:57;10.52;;;5.80;;
39140;SDS011;24875;48.436;10.298;2022-09-24T12:44:29;9.55;;;5.43;;
39140;SDS011;24875;48.436;10.298;2022-09-24T12:47:03;10.20;;;5.47;;
39140;SDS011;24875;48.436;10.298;2022-09-24T12:49:38;8.65;;;5.57;;
39140;SDS011;24875;48.436;10.298;2022-09-24T12:52:14;8.60;;;4.22;;
39140;SDS011;24875;48.436;10.298;2022-09-24T12:54:42;5.90;;;3.75;;
39140;SDS011;24875;48.436;10.298;2022-09-24T12:57:14;6.18;;;3.88;;
39140;SDS011;24875;48.436;10.298;2022-09-24T12:59:46;8.50;;;4.25;;
39140;SDS011;24875;48.436;10.298;2022-09-24T13:02:16;9.98;;;3.78;;
39140;SDS011;24875;48.436;10.298;2022-09-24T13:04:48;7.00;;;3.95;;
39140;SDS011;24875;48.436;10.298;2022-09-24T13:07:26;6.97;;;3.33;;
39140;SDS011;24875;48.436;10.298;2022-09-24T13:09:53;7.45;;;3.88;;
39140;SDS011;24875;48.436;10.298;2022-09-24T13:12:22;5.70;;;3.53;;
39140;SDS011;24875;48.436;10.298;2022-09-24T13:14:57;7.65;;;3.88;;
39140;SDS011;24875;48.436;10.298;2022-09-24T13:17:26;9.57;;;5.30;;
39140;SDS011;24875;48.436;10.298;2022-09-24T13:19:55;8.75;;;4.80;;
39140;SDS011;24875;48.436;10.298;2022-09-24T13:22:25;6.80;;;4.25;;
39140;SDS011;24875;48.436;10.298;2022-09-24T13:25:03;6.97;;;4.88;;
39140;SDS011;24875;48.436;10.298;2022-09-24T13:27:53;9.10;;;5.50;;
39140;SDS011;24875;48.436;10.298;2022-09-24T13:30:21;8.52;;;5.18;;
39140;SDS011;24875;48.436;10.298;2022-09-24T13:33:00;10.40;;;4.75;;
39140;SDS011;24875;48.436;10.298;2022-09-24T13:35:33;7.32;;;4.60;;
39140;SDS011;24875;48.436;10.298;2022-09-24T13:38:06;8.75;;;5.00;;
39140;SDS011;24875;48.436;10.298;2022-09-24T13:40:42;10.88;;;4.25;;
39140;SDS011;24875;48.436;10.298;2022-09-24T13:43:16;5.70;;;3.58;;
39140;SDS011;24875;48.436;10.298;2022-09-24T13:45:50;8.52;;;4.65;;
39140;SDS011;24875;48.436;10.298;2022-09-24T13:48:19;8.73;;;5.18;;
39140;SDS011;24875;48.436;10.298;2022-09-24T13:50:55;9.48;;;5.47;;
39140;SDS011;24875;48.436;10.298;2022-09-24T13:53:23;12.35;;;7.32;;
39140;SDS011;24875;48.436;10.298;2022-09-24T13:55:57;16.85;;;7.68;;
39140;SDS011;24875;48.436;10.298;2022-09-24T13:58:28;10.45;;;6.53;;
39140;SDS011;24875;48.436;10.298;2022-09-24T14:00:56;10.02;;;6.03;;
39140;SDS011;24875;48.436;10.298;2022-09-24T14:03:27;10.77;;;5.70;;
39140;SDS011;24875;48.436;10.298;2022-09-24T14:05:56;13.65;;;5.55;;
39140;SDS011;24875;48.436;10.298;2022-09-24T14:08:24;10.10;;;5.22;;
39140;SDS011;24875;48.436;10.298;2022-09-24T14:11:02;11.15;;;5.05;;
39140;SDS011;24875;48.436;10.298;2022-09-24T14:13:33;9.95;;;5.20;;
39140;SDS011;24875;48.436;10.298;2022-09-24T14:16:06;9.30;;;4.78;;
39140;SDS011;24875;48.436;10.298;2022-09-24T14:18:34;8.23;;;4.03;;
39140;SDS011;24875;48.436;10.298;2022-09-24T14:21:03;7.22;;;4.32;;
39140;SDS011;24875;48.436;10.298;2022-09-24T14:23:35;8.43;;;4.68;;
39140;SDS011;24875;48.436;10.298;2022-09-24T14:26:05;8.25;;;4.38;;
39140;SDS011;24875;48.436;10.298;2022-09-24T14:28:35;7.20;;;3.78;;
39140;SDS011;24875;48.436;10.298;2022-09-24T14:31:04;5.72;;;3.70;;
39140;SDS011;24875;48.436;10.298;2022-09-24T14:33:33;8.57;;;4.32;;
39140;SDS011;24875;48.436;10.298;2022-09-24T14:36:03;11.15;;;6.55;;
39140;SDS011;24875;48.436;10.298;2022-09-24T14:38:31;12.07;;;5.88;;
39140;SDS011;24875;48.436;10.298;2022-09-24T14:41:02;7.50;;;4.47;;
39140;SDS011;24875;48.436;10.298;2022-09-24T14:43:33;7.30;;;4.53;;